Green Valley, Arizona
Current Conditions -  °F | °C
As of 7:53 AM on Thursday 30 Oct 2014 (Local Time) from KTUS Reporting Station
Clear Clear  
Wind Chill: 62°   Ceiling: Unl
Heat Index: 62°   Visibility: 10mi
Dew Point: 40°   Wind: 8mph
Humidity: 44%   Direction: 150°SSE
Pressure: 30.12"   Gusts: NA
Location:  31.91°N, 110.98°W
Report Text: KTUS 301453Z 15007KT 10SM CLR 17/04 A3012 RMK AO2 SLP163 T01670044 53012
Loading
Personal Weather Stations






























Interactive Weather Map New forecast layout! Learn more

10-Day Weather Forecast

Advertisements
Track Severe Weather on mobile